createdAt,value
2023-05-10T00:00:28.606Z,18.33
2023-05-10T00:02:58.555Z,15.03
2023-05-10T00:05:28.494Z,22.73
2023-05-10T00:07:58.348Z,12.47
2023-05-10T00:10:28.203Z,15.47
2023-05-10T00:12:58.059Z,16.13
2023-05-10T00:15:31.661Z,15.50
2023-05-10T00:18:01.975Z,15.57
2023-05-10T00:20:31.878Z,16.37
2023-05-10T00:23:01.835Z,12.07
2023-05-10T00:25:31.684Z,14.70
2023-05-10T00:28:02.561Z,14.67
2023-05-10T00:30:35.028Z,13.40
2023-05-10T00:33:05.419Z,16.03
2023-05-10T00:35:35.346Z,17.13
2023-05-10T00:38:05.142Z,15.43
2023-05-10T00:40:34.975Z,17.17
2023-05-10T00:43:08.134Z,15.00
2023-05-10T00:45:43.745Z,14.70
2023-05-10T00:48:13.673Z,16.70
2023-05-10T00:50:43.930Z,14.83
2023-05-10T00:53:14.049Z,14.80
2023-05-10T00:55:43.963Z,16.87
2023-05-10T00:58:14.128Z,14.10
2023-05-10T01:00:47.493Z,13.30
2023-05-10T01:03:18.239Z,15.20
2023-05-10T01:05:48.154Z,16.07
2023-05-10T01:08:18.305Z,14.73
2023-05-10T01:10:50.314Z,15.07
2023-05-10T01:13:27.236Z,15.27
2023-05-10T01:16:01.117Z,13.50
2023-05-10T01:18:32.565Z,16.33
2023-05-10T01:21:15.498Z,14.10
2023-05-10T01:24:33.526Z,14.33
2023-05-10T01:27:21.376Z,15.20
2023-05-10T01:30:19.125Z,15.97
2023-05-10T01:32:59.071Z,13.97
2023-05-10T01:35:41.414Z,13.03
2023-05-10T01:38:21.251Z,11.43
2023-05-10T01:41:01.027Z,10.20
2023-05-10T01:43:36.776Z,11.37
2023-05-10T01:46:12.201Z,11.40
2023-05-10T01:48:51.775Z,9.37
2023-05-10T01:51:26.840Z,10.60
2023-05-10T01:54:04.326Z,13.50
2023-05-10T01:56:37.120Z,9.53
2023-05-10T01:59:12.694Z,11.73
2023-05-10T02:01:43.875Z,13.50
2023-05-10T02:04:20.923Z,15.93
2023-05-10T02:06:51.780Z,9.83
2023-05-10T02:09:24.595Z,9.37
2023-05-10T02:11:54.410Z,16.20
2023-05-10T02:14:26.050Z,10.13
2023-05-10T02:16:59.673Z,10.53
2023-05-10T02:19:35.751Z,8.70
2023-05-10T02:22:07.261Z,8.20
2023-05-10T02:24:38.538Z,7.97
2023-05-10T02:27:08.708Z,9.83
2023-05-10T02:29:40.595Z,10.07
2023-05-10T02:32:10.994Z,14.87
2023-05-10T02:34:45.941Z,14.23
2023-05-10T02:37:19.574Z,19.63
2023-05-10T02:39:50.629Z,15.70
2023-05-10T02:42:22.661Z,16.20
2023-05-10T02:44:56.899Z,12.50
2023-05-10T02:47:26.971Z,11.53
2023-05-10T02:50:00.653Z,9.27
2023-05-10T02:52:34.854Z,8.30
2023-05-10T02:55:08.917Z,19.60
2023-05-10T02:57:45.251Z,14.40
2023-05-10T03:00:16.172Z,13.30
2023-05-10T03:02:46.287Z,12.80
2023-05-10T03:05:19.044Z,13.40
2023-05-10T03:07:50.156Z,15.20
2023-05-10T03:10:21.667Z,7.00
2023-05-10T03:13:04.039Z,13.20
2023-05-10T03:15:44.470Z,10.60
2023-05-10T03:18:19.176Z,13.70
2023-05-10T03:20:53.680Z,13.97
2023-05-10T03:23:29.407Z,11.90
2023-05-10T03:25:59.542Z,10.60
2023-05-10T03:28:30.856Z,8.83
2023-05-10T03:31:02.783Z,14.83
2023-05-10T03:33:33.856Z,8.60
2023-05-10T03:36:06.787Z,13.23
2023-05-10T03:38:36.600Z,14.30
2023-05-10T03:41:06.471Z,8.93
2023-05-10T03:43:36.532Z,8.30
2023-05-10T03:46:06.485Z,6.63
2023-05-10T03:48:36.963Z,9.30
2023-05-10T03:51:09.551Z,7.03
2023-05-10T03:53:39.482Z,10.27
2023-05-10T03:56:09.680Z,7.93
2023-05-10T03:58:39.748Z,11.27
2023-05-10T04:01:09.628Z,14.67
2023-05-10T04:03:39.521Z,11.87
2023-05-10T04:06:12.988Z,10.80
2023-05-10T04:08:42.928Z,11.80
2023-05-10T04:11:14.894Z,8.87
2023-05-10T04:13:44.768Z,4.60
2023-05-10T04:16:14.689Z,3.60
2023-05-10T04:18:44.548Z,5.13
2023-05-10T04:21:19.910Z,4.50
2023-05-10T04:23:49.878Z,4.33
2023-05-10T04:26:19.730Z,6.50
2023-05-10T04:28:49.644Z,5.73
2023-05-10T04:31:19.546Z,5.03
2023-05-10T04:33:49.504Z,6.60
2023-05-10T04:36:22.109Z,7.20
2023-05-10T04:38:51.961Z,3.87
2023-05-10T04:41:21.824Z,5.80
2023-05-10T04:43:52.333Z,4.57
2023-05-10T04:46:22.284Z,3.40
2023-05-10T04:48:52.342Z,4.10
2023-05-10T04:51:24.811Z,6.10
2023-05-10T04:54:05.159Z,4.00
2023-05-10T04:56:36.254Z,3.97
2023-05-10T04:59:06.159Z,4.13
2023-05-10T05:01:36.385Z,6.23
2023-05-10T05:04:06.591Z,6.37
2023-05-10T05:06:39.172Z,8.87
2023-05-10T05:09:09.061Z,5.93
2023-05-10T05:11:39.414Z,8.47
2023-05-10T05:14:09.226Z,7.27
2023-05-10T05:16:39.406Z,12.93
2023-05-10T05:19:09.322Z,8.20
2023-05-10T05:21:41.785Z,12.50
2023-05-10T05:24:13.551Z,7.33
2023-05-10T05:26:43.368Z,9.30
2023-05-10T05:29:13.220Z,7.37
2023-05-10T05:31:43.236Z,4.70
2023-05-10T05:34:13.147Z,6.83
2023-05-10T05:36:45.619Z,5.67
2023-05-10T05:39:15.549Z,5.73
2023-05-10T05:41:45.566Z,6.70
2023-05-10T05:44:15.408Z,10.23
2023-05-10T05:46:45.292Z,5.50
2023-05-10T05:49:15.136Z,5.60
2023-05-10T05:51:47.681Z,7.67
2023-05-10T05:54:17.522Z,9.53
2023-05-10T05:56:47.545Z,5.90
2023-05-10T05:59:17.372Z,5.00
2023-05-10T06:01:47.242Z,3.73
2023-05-10T06:04:17.300Z,2.53
2023-05-10T06:06:49.836Z,2.50
2023-05-10T06:09:19.748Z,2.67
2023-05-10T06:11:49.643Z,3.33
2023-05-10T06:14:19.531Z,2.60
2023-05-10T06:16:49.495Z,12.50
2023-05-10T06:19:19.392Z,1.90
2023-05-10T06:21:53.752Z,4.07
2023-05-10T06:24:23.842Z,4.13
2023-05-10T06:26:53.707Z,2.60
2023-05-10T06:29:23.533Z,3.23
2023-05-10T06:31:53.371Z,3.43
2023-05-10T06:34:23.318Z,3.20
2023-05-10T06:36:55.880Z,3.10
2023-05-10T06:39:25.727Z,3.40
2023-05-10T06:41:55.608Z,3.60
2023-05-10T06:44:25.471Z,10.07
2023-05-10T06:46:56.979Z,5.17
2023-05-10T06:49:26.884Z,2.90
2023-05-10T06:51:59.475Z,2.63
2023-05-10T06:54:29.378Z,3.53
2023-05-10T06:56:59.837Z,3.60
2023-05-10T06:59:30.624Z,10.00
2023-05-10T07:02:00.586Z,4.83
2023-05-10T07:04:30.583Z,4.10
2023-05-10T07:07:03.019Z,4.90
2023-05-10T07:09:33.421Z,3.10
2023-05-10T07:12:07.218Z,4.57
2023-05-10T07:14:37.979Z,4.90
2023-05-10T07:17:08.057Z,4.20
2023-05-10T07:19:37.975Z,4.53
2023-05-10T07:22:10.524Z,6.13
2023-05-10T07:24:40.363Z,4.07
2023-05-10T07:27:10.228Z,4.37
2023-05-10T07:29:40.138Z,6.13
2023-05-10T07:32:10.209Z,5.73
2023-05-10T07:34:40.096Z,4.37
2023-05-10T07:37:12.672Z,4.70
2023-05-10T07:39:42.607Z,6.07
2023-05-10T07:42:12.432Z,4.03
2023-05-10T07:44:42.970Z,9.53
2023-05-10T07:47:12.879Z,5.70
2023-05-10T07:49:42.674Z,4.40
2023-05-10T07:52:15.162Z,4.73
2023-05-10T07:54:45.747Z,4.30
2023-05-10T07:57:15.801Z,5.70
2023-05-10T07:59:45.682Z,3.70
2023-05-10T08:02:15.509Z,5.73
2023-05-10T08:04:45.624Z,4.30
2023-05-10T08:07:18.115Z,5.60
2023-05-10T08:09:47.977Z,3.10
2023-05-10T08:12:17.873Z,4.53
2023-05-10T08:14:47.733Z,3.77
2023-05-10T08:17:19.679Z,3.60
2023-05-10T08:19:49.964Z,4.50
2023-05-10T08:22:22.605Z,5.60
2023-05-10T08:24:52.436Z,5.00
2023-05-10T08:27:22.386Z,4.37
2023-05-10T08:29:52.264Z,4.50
2023-05-10T08:32:22.349Z,5.53
2023-05-10T08:34:52.186Z,6.67
2023-05-10T08:37:24.584Z,9.00
2023-05-10T08:39:54.424Z,5.10
2023-05-10T08:42:26.580Z,5.73
2023-05-10T08:44:57.865Z,4.83
2023-05-10T08:47:28.999Z,5.50
2023-05-10T08:49:59.290Z,3.90
2023-05-10T08:52:33.748Z,5.20
2023-05-10T08:55:04.291Z,5.43
2023-05-10T08:57:34.225Z,6.73
2023-05-10T09:00:04.988Z,6.40
2023-05-10T09:02:35.404Z,7.90
2023-05-10T09:05:05.947Z,12.20
2023-05-10T09:07:38.963Z,3.77
2023-05-10T09:10:10.478Z,6.13
2023-05-10T09:12:40.846Z,4.30
2023-05-10T09:15:13.102Z,7.17
2023-05-10T09:17:44.447Z,6.93
2023-05-10T09:20:14.475Z,8.20
2023-05-10T09:22:47.108Z,7.10
2023-05-10T09:25:18.694Z,8.43
2023-05-10T09:27:50.084Z,12.60
2023-05-10T09:30:21.734Z,8.37
2023-05-10T09:32:51.860Z,10.43
2023-05-10T09:35:25.871Z,9.20
2023-05-10T09:38:01.573Z,7.57
2023-05-10T09:40:33.120Z,9.60
2023-05-10T09:43:07.076Z,8.80
2023-05-10T09:45:39.316Z,11.73
2023-05-10T09:48:10.078Z,9.70
2023-05-10T09:50:40.034Z,7.20
2023-05-10T09:53:12.590Z,10.20
2023-05-10T09:55:45.903Z,14.13
2023-05-10T09:58:16.592Z,7.43
2023-05-10T10:00:49.055Z,24.40
2023-05-10T10:03:20.830Z,9.63
2023-05-10T10:05:52.461Z,14.40
2023-05-10T10:08:24.962Z,10.13
2023-05-10T10:10:54.878Z,13.70
2023-05-10T10:13:24.979Z,16.37
2023-05-10T10:15:58.239Z,14.37
2023-05-10T10:18:29.844Z,11.63
2023-05-10T10:21:00.405Z,17.03
2023-05-10T10:23:33.100Z,11.53
2023-05-10T10:26:03.737Z,17.60
2023-05-10T10:28:44.193Z,16.67
2023-05-10T10:31:27.700Z,20.77
2023-05-10T10:34:05.927Z,18.00
2023-05-10T10:36:38.158Z,13.63
2023-05-10T10:39:13.659Z,17.43
2023-05-10T10:41:52.647Z,14.73
2023-05-10T10:44:39.313Z,12.30
2023-05-10T10:47:13.017Z,13.07
2023-05-10T10:49:47.918Z,20.60
2023-05-10T10:52:19.535Z,13.03
2023-05-10T10:54:57.316Z,11.80
2023-05-10T10:57:29.656Z,17.10
2023-05-10T11:00:23.823Z,16.20
2023-05-10T11:02:55.640Z,15.23
2023-05-10T11:05:44.717Z,14.53
2023-05-10T11:08:24.044Z,16.27
2023-05-10T11:11:08.323Z,17.97
2023-05-10T11:13:42.214Z,14.30
2023-05-10T11:16:20.283Z,17.80
2023-05-10T11:18:57.636Z,15.03
2023-05-10T11:21:27.550Z,15.77
2023-05-10T11:23:59.821Z,15.80
2023-05-10T11:26:35.527Z,21.70
2023-05-10T11:29:06.309Z,14.50
2023-05-10T11:31:36.398Z,13.80
2023-05-10T11:34:06.348Z,11.23
2023-05-10T11:36:38.472Z,12.67
2023-05-10T11:39:09.010Z,10.63
2023-05-10T11:41:42.990Z,15.50
2023-05-10T11:44:13.357Z,8.77
2023-05-10T11:46:43.356Z,14.97
2023-05-10T11:49:14.546Z,9.70
2023-05-10T11:51:44.798Z,10.83
2023-05-10T11:54:15.471Z,12.00
2023-05-10T11:56:48.291Z,12.33
2023-05-10T11:59:18.668Z,13.30
2023-05-10T12:01:48.726Z,11.57
2023-05-10T12:04:18.850Z,16.73
2023-05-10T12:06:49.075Z,13.40
2023-05-10T12:09:22.979Z,11.33
2023-05-10T12:12:06.100Z,11.70
2023-05-10T12:14:38.605Z,8.80
2023-05-10T12:17:08.584Z,9.10
2023-05-10T12:19:42.208Z,12.03
2023-05-10T12:22:12.119Z,6.57
2023-05-10T12:24:42.030Z,8.63
2023-05-10T12:27:14.560Z,12.60
2023-05-10T12:29:47.107Z,14.97
2023-05-10T12:32:17.036Z,6.60
2023-05-10T12:34:46.990Z,6.83
2023-05-10T12:37:16.947Z,15.60
2023-05-10T12:39:48.406Z,5.77
2023-05-10T12:42:20.962Z,6.80
2023-05-10T12:44:51.000Z,13.40
2023-05-10T12:47:20.910Z,11.73
2023-05-10T12:49:50.788Z,9.50
2023-05-10T12:52:20.840Z,8.13
2023-05-10T12:54:50.888Z,12.10
2023-05-10T12:57:24.398Z,9.20
2023-05-10T12:59:54.498Z,6.97
2023-05-10T13:02:25.066Z,12.17
2023-05-10T13:04:55.199Z,8.37
2023-05-10T13:07:25.085Z,10.90
2023-05-10T13:09:54.904Z,9.00
2023-05-10T13:12:27.453Z,7.90
2023-05-10T13:14:57.269Z,12.33
2023-05-10T13:17:29.785Z,8.23
2023-05-10T13:20:00.229Z,12.60
2023-05-10T13:22:39.747Z,8.30
2023-05-10T13:25:11.237Z,9.73
2023-05-10T13:27:44.383Z,9.57
2023-05-10T13:30:15.301Z,14.13
2023-05-10T13:32:45.408Z,10.03
2023-05-10T13:35:15.346Z,10.50
2023-05-10T13:37:45.221Z,8.07
2023-05-10T13:40:16.858Z,11.77
2023-05-10T13:42:52.462Z,18.07
2023-05-10T13:45:22.371Z,19.90
2023-05-10T13:47:53.311Z,21.43
2023-05-10T13:50:23.633Z,22.47
2023-05-10T13:52:53.607Z,18.57
2023-05-10T13:55:23.898Z,23.90
2023-05-10T13:57:56.484Z,19.97
2023-05-10T14:00:26.499Z,25.27
2023-05-10T14:02:56.690Z,24.10
2023-05-10T14:05:27.331Z,23.47
2023-05-10T14:07:57.648Z,26.67
2023-05-10T14:10:27.889Z,25.60
2023-05-10T14:13:00.378Z,24.67
2023-05-10T14:15:30.288Z,25.93
2023-05-10T14:18:00.178Z,22.43
2023-05-10T14:20:30.282Z,29.13
2023-05-10T14:23:00.149Z,20.07
2023-05-10T14:25:29.999Z,25.10
2023-05-10T14:28:02.674Z,19.80
2023-05-10T14:30:32.576Z,21.20
2023-05-10T14:33:02.468Z,18.93
2023-05-10T14:35:33.115Z,14.43
2023-05-10T14:38:03.696Z,16.53
2023-05-10T14:40:33.756Z,15.73
2023-05-10T14:43:06.701Z,17.43
2023-05-10T14:45:37.313Z,12.63
2023-05-10T14:48:07.541Z,11.83
2023-05-10T14:50:37.705Z,13.40
2023-05-10T14:53:07.650Z,15.23
2023-05-10T14:55:38.094Z,12.63
2023-05-10T14:58:10.550Z,10.93
2023-05-10T15:00:40.377Z,14.67
2023-05-10T15:03:10.870Z,8.70
2023-05-10T15:05:41.693Z,7.77
2023-05-10T15:08:11.767Z,8.93
2023-05-10T15:10:41.617Z,8.50
2023-05-10T15:13:14.051Z,10.30
2023-05-10T15:15:43.955Z,10.80
2023-05-10T15:18:13.975Z,10.87
2023-05-10T15:20:43.794Z,8.03
2023-05-10T15:23:13.684Z,9.77
2023-05-10T15:25:43.613Z,12.40
2023-05-10T15:28:16.124Z,8.70
2023-05-10T15:30:45.970Z,7.93
2023-05-10T15:33:15.802Z,9.33
2023-05-10T15:35:45.729Z,8.47
2023-05-10T15:38:16.107Z,6.43
2023-05-10T15:40:45.931Z,5.20
2023-05-10T15:43:18.623Z,3.73
2023-05-10T15:45:49.077Z,6.60
2023-05-10T15:48:19.080Z,13.73
2023-05-10T15:50:49.078Z,6.20
2023-05-10T15:53:18.987Z,6.93
2023-05-10T15:55:49.261Z,7.40
2023-05-10T15:58:21.848Z,6.20
2023-05-10T16:00:51.811Z,4.47
2023-05-10T16:03:21.701Z,6.13
2023-05-10T16:05:51.645Z,4.03
2023-05-10T16:08:21.504Z,5.77
2023-05-10T16:10:54.364Z,5.63
2023-05-10T16:13:26.929Z,7.73
2023-05-10T16:15:57.757Z,4.23
2023-05-10T16:18:27.745Z,4.50
2023-05-10T16:20:59.462Z,6.97
2023-05-10T16:23:29.409Z,9.97
2023-05-10T16:25:59.296Z,3.30
2023-05-10T16:28:32.563Z,8.57
2023-05-10T16:31:02.459Z,6.33
2023-05-10T16:33:32.459Z,5.10
2023-05-10T16:36:02.354Z,4.37
2023-05-10T16:38:32.199Z,4.00
2023-05-10T16:41:05.196Z,2.67
2023-05-10T16:43:38.027Z,7.50
2023-05-10T16:46:13.261Z,5.47
2023-05-10T16:48:43.113Z,3.20
2023-05-10T16:51:13.356Z,3.20
2023-05-10T16:53:43.221Z,4.63
2023-05-10T16:56:13.122Z,14.07
2023-05-10T16:58:45.785Z,12.90
2023-05-10T17:01:15.684Z,15.33
2023-05-10T17:03:46.991Z,16.10
2023-05-10T17:06:17.019Z,11.50
2023-05-10T17:08:47.748Z,16.97
2023-05-10T17:11:20.082Z,16.10
2023-05-10T17:13:52.871Z,14.03
2023-05-10T17:16:23.427Z,16.90
2023-05-10T17:18:53.461Z,18.47
2023-05-10T17:21:23.382Z,13.27
2023-05-10T17:23:53.290Z,20.60
2023-05-10T17:26:23.153Z,15.07
2023-05-10T17:28:55.914Z,17.80
2023-05-10T17:31:25.973Z,17.93
2023-05-10T17:33:55.824Z,23.33
2023-05-10T17:36:25.654Z,14.80
2023-05-10T17:38:55.507Z,16.03
2023-05-10T17:41:25.328Z,15.03
2023-05-10T17:43:58.084Z,17.63
2023-05-10T17:46:28.047Z,24.00
2023-05-10T17:48:58.147Z,14.30
2023-05-10T17:51:29.089Z,22.50
2023-05-10T17:53:59.108Z,21.53
2023-05-10T17:56:29.049Z,12.33
2023-05-10T17:59:01.492Z,13.23
2023-05-10T18:01:31.341Z,12.50
2023-05-10T18:04:01.187Z,13.80
2023-05-10T18:06:31.128Z,15.40
2023-05-10T18:09:01.025Z,16.50
2023-05-10T18:11:30.964Z,13.20
2023-05-10T18:14:03.426Z,15.27
2023-05-10T18:16:33.635Z,10.67
2023-05-10T18:19:03.928Z,12.43
2023-05-10T18:21:34.419Z,12.30
2023-05-10T18:24:04.380Z,14.63
2023-05-10T18:26:34.428Z,12.70
2023-05-10T18:29:06.939Z,16.70
2023-05-10T18:31:36.873Z,11.03
2023-05-10T18:34:07.380Z,10.83
2023-05-10T18:36:37.254Z,10.27
2023-05-10T18:39:07.269Z,10.53
2023-05-10T18:41:37.258Z,11.53
2023-05-10T18:44:09.822Z,16.13
2023-05-10T18:46:40.271Z,10.40
2023-05-10T18:49:10.331Z,10.83
2023-05-10T18:51:40.334Z,14.80
2023-05-10T18:54:10.188Z,13.33
2023-05-10T18:56:44.173Z,12.97
2023-05-10T18:59:16.940Z,12.90
2023-05-10T19:01:47.208Z,9.47
2023-05-10T19:04:18.220Z,12.13
2023-05-10T19:06:48.306Z,21.77
2023-05-10T19:09:20.350Z,11.83
2023-05-10T19:11:50.332Z,11.10
2023-05-10T19:14:23.205Z,7.23
2023-05-10T19:16:54.551Z,5.90
2023-05-10T19:19:24.773Z,7.40
2023-05-10T19:21:54.874Z,6.40
2023-05-10T19:24:26.014Z,6.33
2023-05-10T19:26:56.537Z,6.97
2023-05-10T19:29:29.471Z,11.43
2023-05-10T19:32:00.974Z,5.53
2023-05-10T19:34:31.191Z,6.80
2023-05-10T19:37:01.278Z,8.10
2023-05-10T19:39:32.807Z,10.20
2023-05-10T19:42:02.802Z,4.63
2023-05-10T19:44:35.556Z,7.13
2023-05-10T19:47:05.549Z,9.73
2023-05-10T19:49:36.426Z,6.67
2023-05-10T19:52:08.027Z,5.60
2023-05-10T19:54:38.316Z,8.77
2023-05-10T19:57:08.313Z,8.20
2023-05-10T19:59:40.869Z,9.27
2023-05-10T20:02:11.042Z,9.73
2023-05-10T20:04:40.966Z,6.37
2023-05-10T20:07:12.607Z,6.67
2023-05-10T20:09:42.802Z,5.60
2023-05-10T20:12:12.858Z,6.73
2023-05-10T20:14:45.342Z,5.57
2023-05-10T20:17:15.660Z,6.80
2023-05-10T20:19:45.582Z,6.70
2023-05-10T20:22:15.523Z,7.07
2023-05-10T20:24:45.410Z,9.97
2023-05-10T20:27:15.368Z,6.93
2023-05-10T20:29:48.060Z,6.80
2023-05-10T20:32:18.129Z,8.30
2023-05-10T20:34:48.149Z,8.30
2023-05-10T20:37:18.082Z,7.67
2023-05-10T20:39:50.289Z,6.83
2023-05-10T20:42:20.393Z,9.03
2023-05-10T20:44:53.304Z,18.00
2023-05-10T20:47:23.581Z,9.00
2023-05-10T20:49:53.790Z,5.27
2023-05-10T20:52:24.587Z,7.40
2023-05-10T20:54:54.677Z,6.27
2023-05-10T20:57:25.085Z,9.77
2023-05-10T20:59:57.818Z,7.37
2023-05-10T21:02:27.830Z,17.70
2023-05-10T21:04:58.199Z,9.13
2023-05-10T21:07:28.245Z,8.10
2023-05-10T21:09:58.123Z,8.90
2023-05-10T21:12:28.129Z,10.10
2023-05-10T21:15:00.721Z,13.10
2023-05-10T21:17:30.768Z,7.80
2023-05-10T21:20:00.668Z,7.43
2023-05-10T21:22:30.626Z,7.60
2023-05-10T21:25:00.529Z,11.67
2023-05-10T21:27:30.386Z,7.50
2023-05-10T21:30:03.246Z,9.83
2023-05-10T21:32:33.151Z,10.60
2023-05-10T21:35:03.047Z,9.83
2023-05-10T21:37:32.940Z,9.30
2023-05-10T21:40:04.837Z,8.77
2023-05-10T21:42:34.796Z,10.53
2023-05-10T21:45:08.040Z,9.70
2023-05-10T21:47:37.986Z,8.83
2023-05-10T21:50:10.228Z,11.53
2023-05-10T21:52:40.227Z,8.23
2023-05-10T21:55:11.451Z,9.40
2023-05-10T21:57:41.637Z,8.67
2023-05-10T22:00:16.572Z,16.63
2023-05-10T22:02:46.988Z,9.60
2023-05-10T22:05:16.970Z,10.37
2023-05-10T22:07:46.958Z,15.73
2023-05-10T22:10:17.120Z,12.33
2023-05-10T22:12:47.260Z,12.90
2023-05-10T22:15:20.092Z,10.33
2023-05-10T22:17:49.997Z,11.20
2023-05-10T22:20:21.240Z,8.10
2023-05-10T22:22:51.446Z,11.87
2023-05-10T22:25:21.454Z,10.23
2023-05-10T22:27:51.437Z,11.30
2023-05-10T22:30:24.236Z,10.17
2023-05-10T22:32:54.477Z,8.80
2023-05-10T22:35:25.118Z,10.03
2023-05-10T22:37:55.223Z,9.10
2023-05-10T22:40:25.130Z,8.90
2023-05-10T22:42:55.060Z,13.10
2023-05-10T22:45:28.310Z,10.87
2023-05-10T22:47:58.247Z,9.30
2023-05-10T22:50:29.534Z,11.30
2023-05-10T22:52:59.411Z,9.80
2023-05-10T22:55:29.723Z,10.63
2023-05-10T22:57:59.792Z,10.27
2023-05-10T23:00:32.314Z,8.03
2023-05-10T23:03:02.295Z,9.30
2023-05-10T23:05:32.309Z,12.83
2023-05-10T23:08:02.252Z,12.03
2023-05-10T23:10:32.447Z,15.60
2023-05-10T23:13:02.426Z,10.20
2023-05-10T23:15:36.440Z,9.53
2023-05-10T23:18:06.345Z,10.07
2023-05-10T23:20:36.353Z,11.67
2023-05-10T23:23:06.294Z,16.50
2023-05-10T23:25:36.241Z,13.50
2023-05-10T23:28:06.193Z,13.50
2023-05-10T23:30:38.784Z,11.73
2023-05-10T23:33:08.813Z,17.23
2023-05-10T23:35:38.756Z,14.13
2023-05-10T23:38:08.715Z,14.27
2023-05-10T23:40:38.779Z,12.97
2023-05-10T23:43:08.693Z,8.97
2023-05-10T23:45:41.437Z,9.63
2023-05-10T23:48:11.538Z,11.20
2023-05-10T23:50:41.574Z,12.20
2023-05-10T23:53:11.560Z,10.37
2023-05-10T23:55:41.604Z,12.10
2023-05-10T23:58:11.875Z,9.50
